sensor_id;sensor_type;location;lat;lon;timestamp;P1;durP1;ratioP1;P2;durP2;ratioP2
16391;SDS011;8305;-33.882;151.134;2023-04-24T00:02:04;6.82;;;0.73;;
16391;SDS011;8305;-33.882;151.134;2023-04-24T00:04:37;2.55;;;0.38;;
16391;SDS011;8305;-33.882;151.134;2023-04-24T00:07:08;2.28;;;0.50;;
16391;SDS011;8305;-33.882;151.134;2023-04-24T00:09:39;3.75;;;0.90;;
16391;SDS011;8305;-33.882;151.134;2023-04-24T00:12:09;1.48;;;0.40;;
16391;SDS011;8305;-33.882;151.134;2023-04-24T00:14:42;5.47;;;0.93;;
16391;SDS011;8305;-33.882;151.134;2023-04-24T00:17:13;2.80;;;1.00;;
16391;SDS011;8305;-33.882;151.134;2023-04-24T00:19:46;5.57;;;0.68;;
16391;SDS011;8305;-33.882;151.134;2023-04-24T00:22:17;3.47;;;0.65;;
16391;SDS011;8305;-33.882;151.134;2023-04-24T00:24:49;3.10;;;0.60;;
16391;SDS011;8305;-33.882;151.134;2023-04-24T00:27:20;2.97;;;0.63;;
16391;SDS011;8305;-33.882;151.134;2023-04-24T00:29:53;3.00;;;0.70;;
16391;SDS011;8305;-33.882;151.134;2023-04-24T00:32:24;3.33;;;0.75;;
16391;SDS011;8305;-33.882;151.134;2023-04-24T00:34:55;3.67;;;0.60;;
16391;SDS011;8305;-33.882;151.134;2023-04-24T00:37:26;5.57;;;0.70;;
16391;SDS011;8305;-33.882;151.134;2023-04-24T00:39:57;5.13;;;0.60;;
16391;SDS011;8305;-33.882;151.134;2023-04-24T00:42:28;3.67;;;0.60;;
16391;SDS011;8305;-33.882;151.134;2023-04-24T00:45:02;9.95;;;0.90;;
16391;SDS011;8305;-33.882;151.134;2023-04-24T00:47:33;3.65;;;0.88;;
16391;SDS011;8305;-33.882;151.134;2023-04-24T00:50:05;3.65;;;0.70;;
16391;SDS011;8305;-33.882;151.134;2023-04-24T00:52:37;3.20;;;0.70;;
16391;SDS011;8305;-33.882;151.134;2023-04-24T00:55:12;4.35;;;0.63;;
16391;SDS011;8305;-33.882;151.134;2023-04-24T00:57:43;4.07;;;0.82;;
16391;SDS011;8305;-33.882;151.134;2023-04-24T01:00:16;4.72;;;0.70;;
16391;SDS011;8305;-33.882;151.134;2023-04-24T01:02:48;2.38;;;0.68;;
16391;SDS011;8305;-33.882;151.134;2023-04-24T01:05:19;2.88;;;0.70;;
16391;SDS011;8305;-33.882;151.134;2023-04-24T01:07:50;6.15;;;0.80;;
16391;SDS011;8305;-33.882;151.134;2023-04-24T01:10:21;1.85;;;0.50;;
16391;SDS011;8305;-33.882;151.134;2023-04-24T01:12:55;6.60;;;0.80;;
16391;SDS011;8305;-33.882;151.134;2023-04-24T01:15:28;5.45;;;0.80;;
16391;SDS011;8305;-33.882;151.134;2023-04-24T01:17:59;4.57;;;0.60;;
16391;SDS011;8305;-33.882;151.134;2023-04-24T01:20:31;5.93;;;0.80;;
16391;SDS011;8305;-33.882;151.134;2023-04-24T01:23:04;1.10;;;0.38;;
16391;SDS011;8305;-33.882;151.134;2023-04-24T01:25:36;4.53;;;0.77;;
16391;SDS011;8305;-33.882;151.134;2023-04-24T01:28:07;6.45;;;0.77;;
16391;SDS011;8305;-33.882;151.134;2023-04-24T01:30:38;6.32;;;0.80;;
16391;SDS011;8305;-33.882;151.134;2023-04-24T01:33:08;4.40;;;0.70;;
16391;SDS011;8305;-33.882;151.134;2023-04-24T01:35:40;3.60;;;0.85;;
16391;SDS011;8305;-33.882;151.134;2023-04-24T01:38:13;4.50;;;0.70;;
16391;SDS011;8305;-33.882;151.134;2023-04-24T01:40:44;11.10;;;1.00;;
16391;SDS011;8305;-33.882;151.134;2023-04-24T01:43:15;5.32;;;0.90;;
16391;SDS011;8305;-33.882;151.134;2023-04-24T01:45:46;5.00;;;0.95;;
16391;SDS011;8305;-33.882;151.134;2023-04-24T01:48:16;4.72;;;0.63;;
16391;SDS011;8305;-33.882;151.134;2023-04-24T01:50:48;3.60;;;0.70;;
16391;SDS011;8305;-33.882;151.134;2023-04-24T01:53:21;3.67;;;0.70;;
16391;SDS011;8305;-33.882;151.134;2023-04-24T01:55:52;3.28;;;0.70;;
16391;SDS011;8305;-33.882;151.134;2023-04-24T01:58:22;3.63;;;0.93;;
16391;SDS011;8305;-33.882;151.134;2023-04-24T02:00:53;4.00;;;0.63;;
16391;SDS011;8305;-33.882;151.134;2023-04-24T02:03:27;6.45;;;1.00;;
16391;SDS011;8305;-33.882;151.134;2023-04-24T02:05:58;5.00;;;0.70;;
16391;SDS011;8305;-33.882;151.134;2023-04-24T02:08:31;8.95;;;1.35;;
16391;SDS011;8305;-33.882;151.134;2023-04-24T02:11:01;7.72;;;1.27;;
16391;SDS011;8305;-33.882;151.134;2023-04-24T02:13:32;6.97;;;1.50;;
16391;SDS011;8305;-33.882;151.134;2023-04-24T02:16:04;11.00;;;1.67;;
16391;SDS011;8305;-33.882;151.134;2023-04-24T02:18:35;9.73;;;1.58;;
16391;SDS011;8305;-33.882;151.134;2023-04-24T02:21:05;6.68;;;1.60;;
16391;SDS011;8305;-33.882;151.134;2023-04-24T02:23:38;7.32;;;1.40;;
16391;SDS011;8305;-33.882;151.134;2023-04-24T02:26:08;8.52;;;1.50;;
16391;SDS011;8305;-33.882;151.134;2023-04-24T02:28:43;7.85;;;1.60;;
16391;SDS011;8305;-33.882;151.134;2023-04-24T02:31:14;9.30;;;1.67;;
16391;SDS011;8305;-33.882;151.134;2023-04-24T02:33:44;6.68;;;1.67;;
16391;SDS011;8305;-33.882;151.134;2023-04-24T02:36:15;7.45;;;1.40;;
16391;SDS011;8305;-33.882;151.134;2023-04-24T02:38:47;9.60;;;1.70;;
16391;SDS011;8305;-33.882;151.134;2023-04-24T02:41:18;10.27;;;1.38;;
16391;SDS011;8305;-33.882;151.134;2023-04-24T02:43:49;10.45;;;1.63;;
16391;SDS011;8305;-33.882;151.134;2023-04-24T02:46:21;8.77;;;1.40;;
16391;SDS011;8305;-33.882;151.134;2023-04-24T02:48:52;8.82;;;1.35;;
16391;SDS011;8305;-33.882;151.134;2023-04-24T02:51:23;9.50;;;1.70;;
16391;SDS011;8305;-33.882;151.134;2023-04-24T02:53:55;9.57;;;1.42;;
16391;SDS011;8305;-33.882;151.134;2023-04-24T02:56:26;9.07;;;1.60;;
16391;SDS011;8305;-33.882;151.134;2023-04-24T02:58:57;7.97;;;1.52;;
16391;SDS011;8305;-33.882;151.134;2023-04-24T03:01:29;15.02;;;1.95;;
16391;SDS011;8305;-33.882;151.134;2023-04-24T03:04:00;9.45;;;1.55;;
16391;SDS011;8305;-33.882;151.134;2023-04-24T03:06:31;7.65;;;1.23;;
16391;SDS011;8305;-33.882;151.134;2023-04-24T03:09:04;10.20;;;1.30;;
16391;SDS011;8305;-33.882;151.134;2023-04-24T03:11:35;9.85;;;1.50;;
16391;SDS011;8305;-33.882;151.134;2023-04-24T03:14:06;4.72;;;1.15;;
16391;SDS011;8305;-33.882;151.134;2023-04-24T03:16:37;6.90;;;1.27;;
16391;SDS011;8305;-33.882;151.134;2023-04-24T03:19:09;7.05;;;1.05;;
16391;SDS011;8305;-33.882;151.134;2023-04-24T03:21:43;6.45;;;1.20;;
16391;SDS011;8305;-33.882;151.134;2023-04-24T03:24:16;11.00;;;1.23;;
16391;SDS011;8305;-33.882;151.134;2023-04-24T03:26:47;12.38;;;1.73;;
16391;SDS011;8305;-33.882;151.134;2023-04-24T03:29:18;8.82;;;1.40;;
16391;SDS011;8305;-33.882;151.134;2023-04-24T03:31:49;11.57;;;1.60;;
16391;SDS011;8305;-33.882;151.134;2023-04-24T03:34:20;9.15;;;1.40;;
16391;SDS011;8305;-33.882;151.134;2023-04-24T03:36:51;9.55;;;1.80;;
16391;SDS011;8305;-33.882;151.134;2023-04-24T03:39:24;10.13;;;2.03;;
16391;SDS011;8305;-33.882;151.134;2023-04-24T03:41:55;11.43;;;1.73;;
16391;SDS011;8305;-33.882;151.134;2023-04-24T03:44:26;10.93;;;1.65;;
16391;SDS011;8305;-33.882;151.134;2023-04-24T03:46:58;13.70;;;2.25;;
16391;SDS011;8305;-33.882;151.134;2023-04-24T03:49:29;12.80;;;2.00;;
16391;SDS011;8305;-33.882;151.134;2023-04-24T03:52:00;13.98;;;2.13;;
16391;SDS011;8305;-33.882;151.134;2023-04-24T03:54:33;9.63;;;1.52;;
16391;SDS011;8305;-33.882;151.134;2023-04-24T03:57:04;12.63;;;2.13;;
16391;SDS011;8305;-33.882;151.134;2023-04-24T03:59:35;15.88;;;2.30;;
16391;SDS011;8305;-33.882;151.134;2023-04-24T04:02:06;12.18;;;1.77;;
16391;SDS011;8305;-33.882;151.134;2023-04-24T04:04:37;8.18;;;1.48;;
16391;SDS011;8305;-33.882;151.134;2023-04-24T04:07:08;8.15;;;1.63;;
16391;SDS011;8305;-33.882;151.134;2023-04-24T04:09:41;8.38;;;1.20;;
16391;SDS011;8305;-33.882;151.134;2023-04-24T04:12:12;11.90;;;1.95;;
16391;SDS011;8305;-33.882;151.134;2023-04-24T04:14:44;9.30;;;1.70;;
16391;SDS011;8305;-33.882;151.134;2023-04-24T04:17:15;7.80;;;1.70;;
16391;SDS011;8305;-33.882;151.134;2023-04-24T04:19:46;11.50;;;1.60;;
16391;SDS011;8305;-33.882;151.134;2023-04-24T04:22:17;8.82;;;1.48;;
16391;SDS011;8305;-33.882;151.134;2023-04-24T04:24:50;5.20;;;1.45;;
16391;SDS011;8305;-33.882;151.134;2023-04-24T04:27:21;8.05;;;1.45;;
16391;SDS011;8305;-33.882;151.134;2023-04-24T04:29:52;9.98;;;1.60;;
16391;SDS011;8305;-33.882;151.134;2023-04-24T04:32:25;7.10;;;1.30;;
16391;SDS011;8305;-33.882;151.134;2023-04-24T04:34:56;8.32;;;1.95;;
16391;SDS011;8305;-33.882;151.134;2023-04-24T04:37:29;10.02;;;1.60;;
16391;SDS011;8305;-33.882;151.134;2023-04-24T04:40:02;6.60;;;1.15;;
16391;SDS011;8305;-33.882;151.134;2023-04-24T04:42:36;10.18;;;1.60;;
16391;SDS011;8305;-33.882;151.134;2023-04-24T04:45:08;8.35;;;1.40;;
16391;SDS011;8305;-33.882;151.134;2023-04-24T04:47:42;6.80;;;1.13;;
16391;SDS011;8305;-33.882;151.134;2023-04-24T04:50:13;10.90;;;1.63;;
16391;SDS011;8305;-33.882;151.134;2023-04-24T04:52:45;9.10;;;1.77;;
16391;SDS011;8305;-33.882;151.134;2023-04-24T04:55:18;9.57;;;1.88;;
16391;SDS011;8305;-33.882;151.134;2023-04-24T04:57:49;12.27;;;1.90;;
16391;SDS011;8305;-33.882;151.134;2023-04-24T05:00:22;10.80;;;1.75;;
16391;SDS011;8305;-33.882;151.134;2023-04-24T05:02:53;10.55;;;1.70;;
16391;SDS011;8305;-33.882;151.134;2023-04-24T05:05:24;10.80;;;1.67;;
16391;SDS011;8305;-33.882;151.134;2023-04-24T05:07:55;9.60;;;1.42;;
16391;SDS011;8305;-33.882;151.134;2023-04-24T05:10:28;14.10;;;1.95;;
16391;SDS011;8305;-33.882;151.134;2023-04-24T05:13:00;12.70;;;2.10;;
16391;SDS011;8305;-33.882;151.134;2023-04-24T05:15:31;12.27;;;1.75;;
16391;SDS011;8305;-33.882;151.134;2023-04-24T05:18:02;8.57;;;1.55;;
16391;SDS011;8305;-33.882;151.134;2023-04-24T05:20:33;12.25;;;1.88;;
16391;SDS011;8305;-33.882;151.134;2023-04-24T05:23:04;14.35;;;2.33;;
16391;SDS011;8305;-33.882;151.134;2023-04-24T05:25:37;20.42;;;2.38;;
16391;SDS011;8305;-33.882;151.134;2023-04-24T05:28:09;15.20;;;2.22;;
16391;SDS011;8305;-33.882;151.134;2023-04-24T05:30:40;9.32;;;1.73;;
16391;SDS011;8305;-33.882;151.134;2023-04-24T05:33:11;10.90;;;2.10;;
16391;SDS011;8305;-33.882;151.134;2023-04-24T05:35:42;12.75;;;2.08;;
16391;SDS011;8305;-33.882;151.134;2023-04-24T05:38:13;14.95;;;2.10;;
16391;SDS011;8305;-33.882;151.134;2023-04-24T05:40:47;17.10;;;2.50;;
16391;SDS011;8305;-33.882;151.134;2023-04-24T05:43:18;19.33;;;2.63;;
16391;SDS011;8305;-33.882;151.134;2023-04-24T05:45:49;16.48;;;2.50;;
16391;SDS011;8305;-33.882;151.134;2023-04-24T05:48:21;11.65;;;2.17;;
16391;SDS011;8305;-33.882;151.134;2023-04-24T05:50:52;14.93;;;3.38;;
16391;SDS011;8305;-33.882;151.134;2023-04-24T05:53:23;17.20;;;2.72;;
16391;SDS011;8305;-33.882;151.134;2023-04-24T05:55:56;16.15;;;2.40;;
16391;SDS011;8305;-33.882;151.134;2023-04-24T05:58:27;17.27;;;2.75;;
16391;SDS011;8305;-33.882;151.134;2023-04-24T06:00:59;16.23;;;2.50;;
16391;SDS011;8305;-33.882;151.134;2023-04-24T06:03:30;18.23;;;2.30;;
16391;SDS011;8305;-33.882;151.134;2023-04-24T06:06:01;15.02;;;2.47;;
16391;SDS011;8305;-33.882;151.134;2023-04-24T06:08:32;17.77;;;2.45;;
16391;SDS011;8305;-33.882;151.134;2023-04-24T06:11:05;13.50;;;2.20;;
16391;SDS011;8305;-33.882;151.134;2023-04-24T06:13:37;13.57;;;2.13;;
16391;SDS011;8305;-33.882;151.134;2023-04-24T06:16:08;12.77;;;1.92;;
16391;SDS011;8305;-33.882;151.134;2023-04-24T06:18:39;17.00;;;2.80;;
16391;SDS011;8305;-33.882;151.134;2023-04-24T06:21:13;11.65;;;2.40;;
16391;SDS011;8305;-33.882;151.134;2023-04-24T06:23:45;14.32;;;2.45;;
16391;SDS011;8305;-33.882;151.134;2023-04-24T06:26:18;19.42;;;2.45;;
16391;SDS011;8305;-33.882;151.134;2023-04-24T06:28:51;16.88;;;2.67;;
16391;SDS011;8305;-33.882;151.134;2023-04-24T06:31:22;15.60;;;2.20;;
16391;SDS011;8305;-33.882;151.134;2023-04-24T06:33:53;12.13;;;2.20;;
16391;SDS011;8305;-33.882;151.134;2023-04-24T06:36:24;14.73;;;2.38;;
16391;SDS011;8305;-33.882;151.134;2023-04-24T06:38:55;19.42;;;2.70;;
16391;SDS011;8305;-33.882;151.134;2023-04-24T06:41:28;12.68;;;2.20;;
16391;SDS011;8305;-33.882;151.134;2023-04-24T06:43:59;13.68;;;2.45;;
16391;SDS011;8305;-33.882;151.134;2023-04-24T06:46:30;16.30;;;2.67;;
16391;SDS011;8305;-33.882;151.134;2023-04-24T06:49:01;12.68;;;2.65;;
16391;SDS011;8305;-33.882;151.134;2023-04-24T06:51:33;14.85;;;3.10;;
16391;SDS011;8305;-33.882;151.134;2023-04-24T06:54:04;16.27;;;3.05;;
16391;SDS011;8305;-33.882;151.134;2023-04-24T06:56:37;14.75;;;2.50;;
16391;SDS011;8305;-33.882;151.134;2023-04-24T06:59:08;14.88;;;2.83;;
16391;SDS011;8305;-33.882;151.134;2023-04-24T07:01:42;11.25;;;2.30;;
16391;SDS011;8305;-33.882;151.134;2023-04-24T07:04:13;12.38;;;2.17;;
16391;SDS011;8305;-33.882;151.134;2023-04-24T07:06:44;13.32;;;2.20;;
16391;SDS011;8305;-33.882;151.134;2023-04-24T07:09:15;17.08;;;2.38;;
16391;SDS011;8305;-33.882;151.134;2023-04-24T07:11:48;9.73;;;2.00;;
16391;SDS011;8305;-33.882;151.134;2023-04-24T07:14:20;13.38;;;2.28;;
16391;SDS011;8305;-33.882;151.134;2023-04-24T07:16:52;11.50;;;2.03;;
16391;SDS011;8305;-33.882;151.134;2023-04-24T07:19:23;9.98;;;2.28;;
16391;SDS011;8305;-33.882;151.134;2023-04-24T07:21:54;12.40;;;2.28;;
16391;SDS011;8305;-33.882;151.134;2023-04-24T07:24:25;11.30;;;2.20;;
16391;SDS011;8305;-33.882;151.134;2023-04-24T07:27:00;13.32;;;2.03;;
16391;SDS011;8305;-33.882;151.134;2023-04-24T07:29:31;13.88;;;1.70;;
16391;SDS011;8305;-33.882;151.134;2023-04-24T07:32:02;10.15;;;2.22;;
16391;SDS011;8305;-33.882;151.134;2023-04-24T07:34:34;11.18;;;1.70;;
16391;SDS011;8305;-33.882;151.134;2023-04-24T07:37:05;8.50;;;1.48;;
16391;SDS011;8305;-33.882;151.134;2023-04-24T07:39:36;9.32;;;1.60;;
16391;SDS011;8305;-33.882;151.134;2023-04-24T07:42:09;7.13;;;1.30;;
16391;SDS011;8305;-33.882;151.134;2023-04-24T07:44:40;7.93;;;1.38;;
16391;SDS011;8305;-33.882;151.134;2023-04-24T07:47:12;7.68;;;1.38;;
16391;SDS011;8305;-33.882;151.134;2023-04-24T07:49:43;9.93;;;1.80;;
16391;SDS011;8305;-33.882;151.134;2023-04-24T07:52:14;7.32;;;1.05;;
16391;SDS011;8305;-33.882;151.134;2023-04-24T07:54:45;10.35;;;1.35;;
16391;SDS011;8305;-33.882;151.134;2023-04-24T07:57:18;8.10;;;1.45;;
16391;SDS011;8305;-33.882;151.134;2023-04-24T07:59:49;5.72;;;1.30;;
16391;SDS011;8305;-33.882;151.134;2023-04-24T08:02:20;8.75;;;1.35;;
16391;SDS011;8305;-33.882;151.134;2023-04-24T08:04:53;5.28;;;1.20;;
16391;SDS011;8305;-33.882;151.134;2023-04-24T08:07:24;5.47;;;1.10;;
16391;SDS011;8305;-33.882;151.134;2023-04-24T08:09:55;5.90;;;1.00;;
16391;SDS011;8305;-33.882;151.134;2023-04-24T08:12:28;7.20;;;1.45;;
16391;SDS011;8305;-33.882;151.134;2023-04-24T08:14:59;5.25;;;1.42;;
16391;SDS011;8305;-33.882;151.134;2023-04-24T08:17:30;6.88;;;1.38;;
16391;SDS011;8305;-33.882;151.134;2023-04-24T08:20:01;7.65;;;1.48;;
16391;SDS011;8305;-33.882;151.134;2023-04-24T08:22:36;8.13;;;1.80;;
16391;SDS011;8305;-33.882;151.134;2023-04-24T08:25:07;8.15;;;1.70;;
16391;SDS011;8305;-33.882;151.134;2023-04-24T08:27:41;6.03;;;1.50;;
16391;SDS011;8305;-33.882;151.134;2023-04-24T08:30:12;6.38;;;1.58;;
16391;SDS011;8305;-33.882;151.134;2023-04-24T08:32:44;6.05;;;1.33;;
16391;SDS011;8305;-33.882;151.134;2023-04-24T08:35:15;6.55;;;1.67;;
16391;SDS011;8305;-33.882;151.134;2023-04-24T08:37:46;5.00;;;1.30;;
16391;SDS011;8305;-33.882;151.134;2023-04-24T08:40:17;7.18;;;1.27;;
16391;SDS011;8305;-33.882;151.134;2023-04-24T08:42:53;6.07;;;1.40;;
16391;SDS011;8305;-33.882;151.134;2023-04-24T08:45:24;5.85;;;1.40;;
16391;SDS011;8305;-33.882;151.134;2023-04-24T08:47:55;5.45;;;1.23;;
16391;SDS011;8305;-33.882;151.134;2023-04-24T08:50:28;5.10;;;1.30;;
16391;SDS011;8305;-33.882;151.134;2023-04-24T08:53:01;4.95;;;1.27;;
16391;SDS011;8305;-33.882;151.134;2023-04-24T08:55:32;5.10;;;1.40;;
16391;SDS011;8305;-33.882;151.134;2023-04-24T08:58:06;5.82;;;1.40;;
16391;SDS011;8305;-33.882;151.134;2023-04-24T09:00:38;9.27;;;1.60;;
16391;SDS011;8305;-33.882;151.134;2023-04-24T09:03:13;11.02;;;1.98;;
16391;SDS011;8305;-33.882;151.134;2023-04-24T09:05:46;12.63;;;2.38;;
16391;SDS011;8305;-33.882;151.134;2023-04-24T09:08:18;7.15;;;1.88;;
16391;SDS011;8305;-33.882;151.134;2023-04-24T09:10:52;11.65;;;2.00;;
16391;SDS011;8305;-33.882;151.134;2023-04-24T09:13:26;11.85;;;2.25;;
16391;SDS011;8305;-33.882;151.134;2023-04-24T09:16:00;9.60;;;1.98;;
16391;SDS011;8305;-33.882;151.134;2023-04-24T09:18:31;11.38;;;2.53;;
16391;SDS011;8305;-33.882;151.134;2023-04-24T09:21:02;8.18;;;2.15;;
16391;SDS011;8305;-33.882;151.134;2023-04-24T09:23:36;8.25;;;1.98;;
16391;SDS011;8305;-33.882;151.134;2023-04-24T09:26:08;7.43;;;1.50;;
16391;SDS011;8305;-33.882;151.134;2023-04-24T09:28:43;8.23;;;1.73;;
16391;SDS011;8305;-33.882;151.134;2023-04-24T09:31:18;12.70;;;2.22;;
16391;SDS011;8305;-33.882;151.134;2023-04-24T09:33:53;10.10;;;2.10;;
16391;SDS011;8305;-33.882;151.134;2023-04-24T09:36:28;7.82;;;1.63;;
16391;SDS011;8305;-33.882;151.134;2023-04-24T09:39:03;8.93;;;2.05;;
16391;SDS011;8305;-33.882;151.134;2023-04-24T09:41:43;10.27;;;2.10;;
16391;SDS011;8305;-33.882;151.134;2023-04-24T09:44:17;9.07;;;1.83;;
16391;SDS011;8305;-33.882;151.134;2023-04-24T09:46:49;10.30;;;2.00;;
16391;SDS011;8305;-33.882;151.134;2023-04-24T09:49:22;13.68;;;2.13;;
16391;SDS011;8305;-33.882;151.134;2023-04-24T09:52:02;8.27;;;1.83;;
16391;SDS011;8305;-33.882;151.134;2023-04-24T09:54:34;10.60;;;2.10;;
16391;SDS011;8305;-33.882;151.134;2023-04-24T09:57:06;9.48;;;1.58;;
16391;SDS011;8305;-33.882;151.134;2023-04-24T09:59:45;7.82;;;1.95;;
16391;SDS011;8305;-33.882;151.134;2023-04-24T10:02:19;7.10;;;1.88;;
16391;SDS011;8305;-33.882;151.134;2023-04-24T10:04:54;8.02;;;1.85;;
16391;SDS011;8305;-33.882;151.134;2023-04-24T10:07:26;7.45;;;1.70;;
16391;SDS011;8305;-33.882;151.134;2023-04-24T10:09:57;7.68;;;1.90;;
16391;SDS011;8305;-33.882;151.134;2023-04-24T10:12:29;9.68;;;1.88;;
16391;SDS011;8305;-33.882;151.134;2023-04-24T10:15:03;9.02;;;2.10;;
16391;SDS011;8305;-33.882;151.134;2023-04-24T10:17:35;6.43;;;2.00;;
16391;SDS011;8305;-33.882;151.134;2023-04-24T10:20:06;9.65;;;2.00;;
16391;SDS011;8305;-33.882;151.134;2023-04-24T10:22:38;7.32;;;1.83;;
16391;SDS011;8305;-33.882;151.134;2023-04-24T10:25:12;7.45;;;1.98;;
16391;SDS011;8305;-33.882;151.134;2023-04-24T10:27:44;9.27;;;1.88;;
16391;SDS011;8305;-33.882;151.134;2023-04-24T10:30:18;10.82;;;2.03;;
16391;SDS011;8305;-33.882;151.134;2023-04-24T10:32:49;9.55;;;2.00;;
16391;SDS011;8305;-33.882;151.134;2023-04-24T10:35:20;9.32;;;1.77;;
16391;SDS011;8305;-33.882;151.134;2023-04-24T10:37:54;7.15;;;1.80;;
16391;SDS011;8305;-33.882;151.134;2023-04-24T10:40:30;7.75;;;2.05;;
16391;SDS011;8305;-33.882;151.134;2023-04-24T10:43:02;12.80;;;2.42;;
16391;SDS011;8305;-33.882;151.134;2023-04-24T10:45:36;11.40;;;2.45;;
16391;SDS011;8305;-33.882;151.134;2023-04-24T10:48:08;10.40;;;2.17;;
16391;SDS011;8305;-33.882;151.134;2023-04-24T10:50:43;8.30;;;2.15;;
16391;SDS011;8305;-33.882;151.134;2023-04-24T10:53:15;8.38;;;2.35;;
16391;SDS011;8305;-33.882;151.134;2023-04-24T10:55:47;8.93;;;2.10;;
16391;SDS011;8305;-33.882;151.134;2023-04-24T10:58:22;12.73;;;2.40;;
16391;SDS011;8305;-33.882;151.134;2023-04-24T11:00:58;8.82;;;2.42;;
16391;SDS011;8305;-33.882;151.134;2023-04-24T11:03:30;10.05;;;2.22;;
16391;SDS011;8305;-33.882;151.134;2023-04-24T11:06:03;9.63;;;2.25;;
16391;SDS011;8305;-33.882;151.134;2023-04-24T11:08:37;11.88;;;2.25;;
16391;SDS011;8305;-33.882;151.134;2023-04-24T11:11:11;6.32;;;2.10;;
16391;SDS011;8305;-33.882;151.134;2023-04-24T11:14:02;8.95;;;2.28;;
16391;SDS011;8305;-33.882;151.134;2023-04-24T11:16:38;10.45;;;2.30;;
16391;SDS011;8305;-33.882;151.134;2023-04-24T11:19:20;10.23;;;2.20;;
16391;SDS011;8305;-33.882;151.134;2023-04-24T11:21:56;9.88;;;2.65;;
16391;SDS011;8305;-33.882;151.134;2023-04-24T11:24:29;10.55;;;2.47;;
16391;SDS011;8305;-33.882;151.134;2023-04-24T11:27:06;9.18;;;2.47;;
16391;SDS011;8305;-33.882;151.134;2023-04-24T11:29:42;9.50;;;2.33;;
16391;SDS011;8305;-33.882;151.134;2023-04-24T11:32:22;9.60;;;2.35;;
16391;SDS011;8305;-33.882;151.134;2023-04-24T11:34:55;8.23;;;1.98;;
16391;SDS011;8305;-33.882;151.134;2023-04-24T11:37:27;8.98;;;2.38;;
16391;SDS011;8305;-33.882;151.134;2023-04-24T11:40:02;14.65;;;2.50;;
16391;SDS011;8305;-33.882;151.134;2023-04-24T11:42:34;14.00;;;2.45;;
16391;SDS011;8305;-33.882;151.134;2023-04-24T11:45:10;9.57;;;2.65;;
16391;SDS011;8305;-33.882;151.134;2023-04-24T11:47:44;10.95;;;2.45;;
16391;SDS011;8305;-33.882;151.134;2023-04-24T11:50:15;11.30;;;3.00;;
16391;SDS011;8305;-33.882;151.134;2023-04-24T11:52:48;8.18;;;2.53;;
16391;SDS011;8305;-33.882;151.134;2023-04-24T11:55:26;7.65;;;2.55;;
16391;SDS011;8305;-33.882;151.134;2023-04-24T11:57:58;10.88;;;2.50;;
16391;SDS011;8305;-33.882;151.134;2023-04-24T12:00:29;7.88;;;1.92;;
16391;SDS011;8305;-33.882;151.134;2023-04-24T12:03:07;6.78;;;2.15;;
16391;SDS011;8305;-33.882;151.134;2023-04-24T12:05:39;14.55;;;2.83;;
16391;SDS011;8305;-33.882;151.134;2023-04-24T12:08:11;11.15;;;2.50;;
16391;SDS011;8305;-33.882;151.134;2023-04-24T12:10:55;11.90;;;2.80;;
16391;SDS011;8305;-33.882;151.134;2023-04-24T12:13:27;8.48;;;2.17;;
16391;SDS011;8305;-33.882;151.134;2023-04-24T12:15:58;8.43;;;2.28;;
16391;SDS011;8305;-33.882;151.134;2023-04-24T12:18:32;8.25;;;2.30;;
16391;SDS011;8305;-33.882;151.134;2023-04-24T12:21:16;11.48;;;2.90;;
16391;SDS011;8305;-33.882;151.134;2023-04-24T12:23:49;7.93;;;2.50;;
16391;SDS011;8305;-33.882;151.134;2023-04-24T12:26:23;10.07;;;2.65;;
16391;SDS011;8305;-33.882;151.134;2023-04-24T12:28:55;10.70;;;2.55;;
16391;SDS011;8305;-33.882;151.134;2023-04-24T12:31:30;8.05;;;2.40;;
16391;SDS011;8305;-33.882;151.134;2023-04-24T12:34:03;9.35;;;2.50;;
16391;SDS011;8305;-33.882;151.134;2023-04-24T12:36:46;8.43;;;2.70;;
16391;SDS011;8305;-33.882;151.134;2023-04-24T12:39:17;12.40;;;2.90;;
16391;SDS011;8305;-33.882;151.134;2023-04-24T12:41:54;8.48;;;2.33;;
16391;SDS011;8305;-33.882;151.134;2023-04-24T12:44:30;9.57;;;2.95;;
16391;SDS011;8305;-33.882;151.134;2023-04-24T12:47:03;9.48;;;2.55;;
16391;SDS011;8305;-33.882;151.134;2023-04-24T12:49:36;7.97;;;2.40;;
16391;SDS011;8305;-33.882;151.134;2023-04-24T12:52:07;9.40;;;2.60;;
16391;SDS011;8305;-33.882;151.134;2023-04-24T12:54:38;10.73;;;2.80;;
16391;SDS011;8305;-33.882;151.134;2023-04-24T12:57:10;11.07;;;2.70;;
16391;SDS011;8305;-33.882;151.134;2023-04-24T12:59:41;10.27;;;2.78;;
16391;SDS011;8305;-33.882;151.134;2023-04-24T13:02:12;11.25;;;2.78;;
16391;SDS011;8305;-33.882;151.134;2023-04-24T13:04:46;11.25;;;2.88;;
16391;SDS011;8305;-33.882;151.134;2023-04-24T13:07:17;10.02;;;2.72;;
16391;SDS011;8305;-33.882;151.134;2023-04-24T13:09:52;9.73;;;2.50;;
16391;SDS011;8305;-33.882;151.134;2023-04-24T13:12:23;9.15;;;2.53;;
16391;SDS011;8305;-33.882;151.134;2023-04-24T13:14:54;11.10;;;2.50;;
16391;SDS011;8305;-33.882;151.134;2023-04-24T13:17:25;11.48;;;2.70;;
16391;SDS011;8305;-33.882;151.134;2023-04-24T13:19:58;8.85;;;2.47;;
16391;SDS011;8305;-33.882;151.134;2023-04-24T13:22:29;10.40;;;3.33;;
16391;SDS011;8305;-33.882;151.134;2023-04-24T13:25:00;12.63;;;3.53;;
16391;SDS011;8305;-33.882;151.134;2023-04-24T13:27:32;10.90;;;3.60;;
16391;SDS011;8305;-33.882;151.134;2023-04-24T13:30:03;10.65;;;3.65;;
16391;SDS011;8305;-33.882;151.134;2023-04-24T13:32:35;10.88;;;3.90;;
16391;SDS011;8305;-33.882;151.134;2023-04-24T13:35:09;10.93;;;3.13;;
16391;SDS011;8305;-33.882;151.134;2023-04-24T13:37:40;12.05;;;3.60;;
16391;SDS011;8305;-33.882;151.134;2023-04-24T13:40:11;13.20;;;4.00;;
16391;SDS011;8305;-33.882;151.134;2023-04-24T13:42:42;12.88;;;4.35;;
16391;SDS011;8305;-33.882;151.134;2023-04-24T13:45:13;10.32;;;3.50;;
16391;SDS011;8305;-33.882;151.134;2023-04-24T13:47:44;16.38;;;3.70;;
16391;SDS011;8305;-33.882;151.134;2023-04-24T13:50:17;17.08;;;4.07;;
16391;SDS011;8305;-33.882;151.134;2023-04-24T13:52:48;12.07;;;3.88;;
16391;SDS011;8305;-33.882;151.134;2023-04-24T13:55:20;14.40;;;3.90;;
16391;SDS011;8305;-33.882;151.134;2023-04-24T13:57:51;13.45;;;3.65;;
16391;SDS011;8305;-33.882;151.134;2023-04-24T14:00:23;15.88;;;4.00;;
16391;SDS011;8305;-33.882;151.134;2023-04-24T14:02:54;15.60;;;4.07;;
16391;SDS011;8305;-33.882;151.134;2023-04-24T14:05:27;14.30;;;4.07;;
16391;SDS011;8305;-33.882;151.134;2023-04-24T14:08:01;11.68;;;3.75;;
16391;SDS011;8305;-33.882;151.134;2023-04-24T14:10:32;15.23;;;4.20;;
16391;SDS011;8305;-33.882;151.134;2023-04-24T14:13:03;16.20;;;4.20;;
16391;SDS011;8305;-33.882;151.134;2023-04-24T14:15:35;14.65;;;4.35;;
16391;SDS011;8305;-33.882;151.134;2023-04-24T14:18:06;12.13;;;3.80;;
16391;SDS011;8305;-33.882;151.134;2023-04-24T14:20:40;14.35;;;4.00;;
16391;SDS011;8305;-33.882;151.134;2023-04-24T14:23:11;12.63;;;3.75;;
16391;SDS011;8305;-33.882;151.134;2023-04-24T14:25:42;14.48;;;3.90;;
16391;SDS011;8305;-33.882;151.134;2023-04-24T14:28:17;15.70;;;4.28;;
16391;SDS011;8305;-33.882;151.134;2023-04-24T14:30:48;14.00;;;4.00;;
16391;SDS011;8305;-33.882;151.134;2023-04-24T14:33:19;13.73;;;3.83;;
16391;SDS011;8305;-33.882;151.134;2023-04-24T14:35:52;11.73;;;3.75;;
16391;SDS011;8305;-33.882;151.134;2023-04-24T14:38:23;11.13;;;3.67;;
16391;SDS011;8305;-33.882;151.134;2023-04-24T14:40:54;13.60;;;4.07;;
16391;SDS011;8305;-33.882;151.134;2023-04-24T14:43:25;12.23;;;4.10;;
16391;SDS011;8305;-33.882;151.134;2023-04-24T14:45:56;11.30;;;3.80;;